Time;durP1;ratioP1;P1;durP2;ratioP2;P2;SDS_P1;SDS_P2;PMS_P1;PMS_P2;Temp;Humidity;BMP_temperature;BMP_pressure;BME280_temperature;BME280_humidity;BME280_pressure;Samples;Min_cycle;Max_cycle;Signal;HPM_P1;HPM_P2
2024/01/08 00:01:01;;;;;;;14.10;5.87;;;;;;;;;;5027361;28;20060;-63
2024/01/08 00:03:26;;;;;;;15.03;5.90;;;;;;;;;;5028750;28;20029;-63
2024/01/08 00:05:51;;;;;;;11.87;5.87;;;;;;;;;;5029445;28;20317;-62
2024/01/08 00:08:17;;;;;;;13.13;6.20;;;;;;;;;;5029230;28;20068;-62
2024/01/08 00:10:42;;;;;;;14.10;6.10;;;;;;;;;;5029046;28;20065;-62
2024/01/08 00:13:09;;;;;;;15.20;6.50;;;;;;;;;;5027630;28;21278;-61
2024/01/08 00:15:34;;;;;;;10.80;5.27;;;;;;;;;;5029114;28;20071;-61
2024/01/08 00:18:00;;;;;;;11.80;6.30;;;;;;;;;;5029431;28;20029;-62
2024/01/08 00:20:25;;;;;;;13.37;6.13;;;;;;;;;;5028545;28;20056;-62
2024/01/08 00:22:50;;;;;;;13.80;6.43;;;;;;;;;;5029255;28;20018;-62
2024/01/08 00:25:16;;;;;;;19.97;7.47;;;;;;;;;;5028848;28;20030;-62
2024/01/08 00:27:41;;;;;;;14.97;6.70;;;;;;;;;;5028421;28;20025;-61
2024/01/08 00:30:06;;;;;;;15.07;6.40;;;;;;;;;;5028897;28;20034;-62
2024/01/08 00:32:32;;;;;;;15.77;6.80;;;;;;;;;;5029432;28;20025;-61
2024/01/08 00:34:58;;;;;;;16.13;6.53;;;;;;;;;;5030150;28;20451;-62
2024/01/08 00:37:23;;;;;;;15.97;7.07;;;;;;;;;;5027666;28;20108;-61
2024/01/08 00:39:48;;;;;;;12.63;6.50;;;;;;;;;;5026657;28;20116;-61
2024/01/08 00:42:13;;;;;;;14.73;6.50;;;;;;;;;;5028850;28;20021;-62
2024/01/08 00:44:38;;;;;;;14.13;7.07;;;;;;;;;;5028416;28;21258;-61
2024/01/08 00:47:04;;;;;;;14.00;6.47;;;;;;;;;;5026338;28;20108;-61
2024/01/08 00:49:29;;;;;;;14.90;7.07;;;;;;;;;;5029319;28;20025;-61
2024/01/08 00:51:54;;;;;;;13.67;6.27;;;;;;;;;;5028858;28;20095;-62
2024/01/08 00:54:19;;;;;;;16.10;6.87;;;;;;;;;;5029303;28;20053;-61
2024/01/08 00:56:48;;;;;;;15.07;6.20;;;;;;;;;;5028845;28;20492;-62
2024/01/08 00:59:13;;;;;;;16.77;7.40;;;;;;;;;;5027118;28;20041;-62
2024/01/08 01:01:38;;;;;;;15.03;7.57;;;;;;;;;;5029626;28;20291;-62
2024/01/08 01:04:04;;;;;;;18.70;6.73;;;;;;;;;;5029535;28;20062;-62
2024/01/08 01:06:29;;;;;;;17.57;6.90;;;;;;;;;;5029696;28;20033;-62
2024/01/08 01:08:54;;;;;;;15.07;7.20;;;;;;;;;;5029401;28;20025;-62
2024/01/08 01:11:20;;;;;;;17.87;7.37;;;;;;;;;;5028317;28;20038;-62
2024/01/08 01:13:45;;;;;;;14.77;7.53;;;;;;;;;;5029525;28;20055;-62
2024/01/08 01:16:10;;;;;;;17.33;7.30;;;;;;;;;;5027178;28;20065;-62
2024/01/08 01:18:35;;;;;;;15.73;6.77;;;;;;;;;;5028930;28;20029;-63
2024/01/08 01:21:01;;;;;;;16.80;7.40;;;;;;;;;;5027483;28;20040;-63
2024/01/08 01:23:26;;;;;;;19.27;8.07;;;;;;;;;;5029118;28;20112;-63
2024/01/08 01:25:51;;;;;;;15.67;6.97;;;;;;;;;;5032570;28;20033;-62
2024/01/08 01:28:16;;;;;;;17.07;7.80;;;;;;;;;;5031962;28;20025;-63
2024/01/08 01:30:42;;;;;;;18.33;7.83;;;;;;;;;;5031937;28;20040;-62
2024/01/08 01:33:07;;;;;;;14.53;6.23;;;;;;;;;;5032189;28;20477;-63
2024/01/08 01:35:32;;;;;;;13.90;5.83;;;;;;;;;;5032409;28;20029;-62
2024/01/08 01:37:58;;;;;;;14.07;6.50;;;;;;;;;;5032451;28;20057;-63
2024/01/08 01:40:25;;;;;;;17.30;7.63;;;;;;;;;;5030770;28;20033;-63
2024/01/08 01:42:54;;;;;;;18.23;7.70;;;;;;;;;;5032086;28;20464;-62
2024/01/08 01:45:19;;;;;;;17.33;7.47;;;;;;;;;;5031691;28;20022;-63
2024/01/08 01:47:45;;;;;;;15.87;7.60;;;;;;;;;;5032562;28;20266;-63
2024/01/08 01:50:11;;;;;;;16.10;7.60;;;;;;;;;;5028106;28;20029;-63
2024/01/08 01:52:37;;;;;;;15.80;7.67;;;;;;;;;;5032584;28;20033;-63
2024/01/08 01:55:02;;;;;;;18.13;7.57;;;;;;;;;;5031537;28;20271;-63
2024/01/08 01:57:28;;;;;;;15.37;6.80;;;;;;;;;;5031345;28;20108;-63
2024/01/08 01:59:53;;;;;;;15.90;8.03;;;;;;;;;;5027467;28;20371;-62
2024/01/08 02:02:18;;;;;;;16.10;6.43;;;;;;;;;;5031890;28;20029;-63
2024/01/08 02:04:44;;;;;;;17.10;6.83;;;;;;;;;;5031882;28;20538;-63
2024/01/08 02:07:09;;;;;;;17.03;8.60;;;;;;;;;;5030601;28;20072;-63
2024/01/08 02:09:34;;;;;;;15.60;7.20;;;;;;;;;;5028918;28;20040;-63
2024/01/08 02:12:00;;;;;;;15.97;6.87;;;;;;;;;;5031956;28;20052;-63
2024/01/08 02:14:25;;;;;;;15.17;5.70;;;;;;;;;;5030253;28;20048;-63
2024/01/08 02:16:50;;;;;;;12.27;5.40;;;;;;;;;;5031986;28;20060;-63
2024/01/08 02:19:15;;;;;;;15.97;7.07;;;;;;;;;;5030447;28;20049;-63
2024/01/08 02:21:41;;;;;;;16.23;7.37;;;;;;;;;;5031272;28;20060;-63
2024/01/08 02:24:06;;;;;;;18.80;7.00;;;;;;;;;;5029891;28;20029;-63
2024/01/08 02:26:31;;;;;;;15.23;7.03;;;;;;;;;;5031012;28;20029;-63
2024/01/08 02:28:57;;;;;;;14.27;6.77;;;;;;;;;;5029954;28;20033;-63
2024/01/08 02:31:22;;;;;;;15.57;6.57;;;;;;;;;;5031403;28;20390;-63
2024/01/08 02:33:47;;;;;;;9.30;4.43;;;;;;;;;;5029339;28;20079;-63
2024/01/08 02:36:13;;;;;;;15.30;6.57;;;;;;;;;;5030419;28;20112;-62
2024/01/08 02:38:38;;;;;;;14.07;6.23;;;;;;;;;;5031871;28;20029;-62
2024/01/08 02:41:03;;;;;;;13.80;6.50;;;;;;;;;;5030646;28;20366;-62
2024/01/08 02:43:28;;;;;;;15.03;6.40;;;;;;;;;;5030720;28;20026;-62
2024/01/08 02:45:54;;;;;;;13.47;6.60;;;;;;;;;;5031408;28;20021;-62
2024/01/08 02:48:19;;;;;;;19.10;6.43;;;;;;;;;;5030554;28;20477;-62
2024/01/08 02:50:44;;;;;;;12.07;5.73;;;;;;;;;;5031343;28;20567;-62
2024/01/08 02:53:09;;;;;;;13.63;6.00;;;;;;;;;;5031236;28;20029;-62
2024/01/08 02:55:35;;;;;;;11.63;5.70;;;;;;;;;;5030775;28;20027;-62
2024/01/08 02:58:04;;;;;;;13.00;6.63;;;;;;;;;;5029695;28;20021;-63
2024/01/08 03:00:29;;;;;;;17.17;6.13;;;;;;;;;;5030306;28;20484;-63
2024/01/08 03:02:54;;;;;;;14.63;6.87;;;;;;;;;;5030363;28;20307;-62
2024/01/08 03:05:20;;;;;;;11.80;5.73;;;;;;;;;;5030397;28;20010;-62
2024/01/08 03:07:45;;;;;;;16.30;6.77;;;;;;;;;;5030696;28;20021;-62
2024/01/08 03:10:10;;;;;;;13.73;6.00;;;;;;;;;;5031146;28;20037;-62
2024/01/08 03:12:35;;;;;;;14.10;6.23;;;;;;;;;;5030206;28;20484;-62
2024/01/08 03:15:01;;;;;;;13.20;6.13;;;;;;;;;;5030435;28;20027;-62
2024/01/08 03:17:26;;;;;;;12.90;6.00;;;;;;;;;;5030733;28;20021;-62
2024/01/08 03:19:51;;;;;;;15.07;6.13;;;;;;;;;;5028925;28;20049;-62
2024/01/08 03:22:16;;;;;;;12.50;5.80;;;;;;;;;;5029473;28;20478;-63
2024/01/08 03:24:42;;;;;;;13.83;5.60;;;;;;;;;;5030012;28;20025;-62
2024/01/08 03:27:07;;;;;;;14.00;5.50;;;;;;;;;;5029326;28;20018;-63
2024/01/08 03:29:33;;;;;;;13.07;5.70;;;;;;;;;;5030122;28;20021;-62
2024/01/08 03:31:58;;;;;;;14.87;5.03;;;;;;;;;;5030185;28;20033;-63
2024/01/08 03:34:23;;;;;;;9.67;4.93;;;;;;;;;;5030746;28;20079;-62
2024/01/08 03:36:49;;;;;;;12.27;4.90;;;;;;;;;;5030190;28;20060;-62
2024/01/08 03:39:15;;;;;;;8.67;4.10;;;;;;;;;;5030520;28;20033;-62
2024/01/08 03:41:41;;;;;;;11.60;5.13;;;;;;;;;;5029234;28;20025;-62
2024/01/08 03:44:07;;;;;;;14.27;5.03;;;;;;;;;;5029814;28;20286;-62
2024/01/08 03:46:32;;;;;;;13.37;5.53;;;;;;;;;;5029366;28;20025;-63
2024/01/08 03:48:58;;;;;;;11.03;5.07;;;;;;;;;;5029471;28;20028;-63
2024/01/08 03:51:23;;;;;;;10.90;4.50;;;;;;;;;;5029778;28;20068;-63
2024/01/08 03:53:48;;;;;;;11.90;4.87;;;;;;;;;;5028531;28;20025;-63
2024/01/08 03:56:14;;;;;;;9.67;4.67;;;;;;;;;;5029614;28;20025;-63
2024/01/08 03:58:39;;;;;;;11.10;4.67;;;;;;;;;;5029392;28;20033;-63
2024/01/08 04:01:04;;;;;;;10.10;4.60;;;;;;;;;;5029465;28;20030;-63
2024/01/08 04:03:29;;;;;;;9.10;4.67;;;;;;;;;;5028829;28;20017;-63
2024/01/08 04:05:55;;;;;;;12.77;4.53;;;;;;;;;;5028447;28;20029;-63
2024/01/08 04:08:20;;;;;;;11.43;4.60;;;;;;;;;;5029703;28;20027;-63
2024/01/08 04:10:45;;;;;;;12.13;5.00;;;;;;;;;;5027481;28;20017;-63
2024/01/08 04:13:11;;;;;;;10.23;4.73;;;;;;;;;;5029471;28;20824;-63
2024/01/08 04:15:36;;;;;;;10.10;4.83;;;;;;;;;;5027929;28;20086;-63
2024/01/08 04:18:01;;;;;;;8.90;4.10;;;;;;;;;;5028558;28;20061;-63
2024/01/08 04:20:27;;;;;;;10.90;4.23;;;;;;;;;;5029041;28;20053;-63
2024/01/08 04:22:52;;;;;;;9.53;4.17;;;;;;;;;;5027728;28;20040;-63
2024/01/08 04:25:17;;;;;;;11.33;4.27;;;;;;;;;;5028681;28;20458;-63
2024/01/08 04:27:43;;;;;;;9.47;4.20;;;;;;;;;;5028650;28;20037;-63
2024/01/08 04:30:08;;;;;;;11.83;4.57;;;;;;;;;;5029047;28;20033;-63
2024/01/08 04:32:34;;;;;;;10.93;4.87;;;;;;;;;;5028136;28;20025;-63
2024/01/08 04:34:59;;;;;;;9.07;4.20;;;;;;;;;;5027468;28;20758;-63
2024/01/08 04:37:24;;;;;;;8.13;4.57;;;;;;;;;;5028173;28;20497;-63
2024/01/08 04:39:50;;;;;;;10.83;3.80;;;;;;;;;;5028276;28;20425;-64
2024/01/08 04:42:15;;;;;;;10.97;4.60;;;;;;;;;;5029239;28;20037;-63
2024/01/08 04:44:40;;;;;;;8.37;4.07;;;;;;;;;;5028237;28;20041;-63
2024/01/08 04:47:07;;;;;;;8.57;4.20;;;;;;;;;;5029191;28;20021;-63
2024/01/08 04:49:32;;;;;;;8.47;3.90;;;;;;;;;;5028760;28;20022;-63
2024/01/08 04:51:57;;;;;;;9.17;4.47;;;;;;;;;;5028846;28;20218;-63
2024/01/08 04:54:22;;;;;;;10.83;4.27;;;;;;;;;;5028763;28;20076;-63
2024/01/08 04:56:48;;;;;;;8.30;4.03;;;;;;;;;;5027804;28;20029;-63
2024/01/08 04:59:13;;;;;;;9.10;4.73;;;;;;;;;;5028695;28;20078;-63
2024/01/08 05:01:38;;;;;;;9.17;3.77;;;;;;;;;;5031676;28;20029;-63
2024/01/08 05:04:04;;;;;;;10.40;4.37;;;;;;;;;;5032334;28;20048;-63
2024/01/08 05:06:29;;;;;;;7.57;3.90;;;;;;;;;;5032416;28;20029;-63
2024/01/08 05:08:55;;;;;;;9.53;4.10;;;;;;;;;;5032301;28;20033;-63
2024/01/08 05:11:20;;;;;;;7.60;3.90;;;;;;;;;;5032319;28;20333;-63
2024/01/08 05:13:45;;;;;;;6.50;3.13;;;;;;;;;;5030297;28;20113;-63
2024/01/08 05:16:10;;;;;;;7.63;3.77;;;;;;;;;;5031896;28;20029;-63
2024/01/08 05:18:36;;;;;;;9.77;3.60;;;;;;;;;;5032916;28;20068;-63
2024/01/08 05:21:02;;;;;;;8.60;4.27;;;;;;;;;;5032743;28;20025;-63
2024/01/08 05:23:27;;;;;;;11.23;4.07;;;;;;;;;;5032279;28;20018;-63
2024/01/08 05:25:53;;;;;;;10.20;4.57;;;;;;;;;;5029447;28;20397;-63
2024/01/08 05:28:18;;;;;;;10.83;3.70;;;;;;;;;;5031647;28;20060;-63
2024/01/08 05:30:43;;;;;;;9.80;4.13;;;;;;;;;;5031329;28;20075;-63
2024/01/08 05:33:08;;;;;;;10.10;4.40;;;;;;;;;;5032392;28;20021;-63
2024/01/08 05:35:35;;;;;;;7.37;3.43;;;;;;;;;;5032294;28;20029;-63
2024/01/08 05:38:01;;;;;;;9.30;4.70;;;;;;;;;;5032622;28;20079;-63
2024/01/08 05:40:27;;;;;;;9.83;4.40;;;;;;;;;;5032031;28;20032;-62
2024/01/08 05:42:52;;;;;;;9.80;4.47;;;;;;;;;;5029916;28;20097;-63
2024/01/08 05:45:18;;;;;;;10.33;4.50;;;;;;;;;;5011143;28;20404;-62
2024/01/08 05:47:44;;;;;;;8.93;4.40;;;;;;;;;;5031589;28;20021;-63
2024/01/08 05:50:09;;;;;;;8.80;3.53;;;;;;;;;;5030936;28;20470;-63
2024/01/08 05:52:34;;;;;;;6.17;2.77;;;;;;;;;;5031850;28;20026;-63
2024/01/08 05:55:00;;;;;;;10.13;4.53;;;;;;;;;;5031254;28;20029;-62
2024/01/08 05:57:25;;;;;;;7.67;3.97;;;;;;;;;;5031265;28;20031;-63
2024/01/08 05:59:50;;;;;;;14.50;4.77;;;;;;;;;;5030722;28;20064;-63
2024/01/08 06:02:16;;;;;;;8.73;4.43;;;;;;;;;;5029749;28;20116;-63
2024/01/08 06:04:42;;;;;;;12.90;4.90;;;;;;;;;;5031224;28;20108;-62
2024/01/08 06:07:07;;;;;;;8.47;3.73;;;;;;;;;;5031459;28;20117;-62
2024/01/08 06:09:32;;;;;;;9.83;3.73;;;;;;;;;;5031704;28;20406;-61
2024/01/08 06:11:58;;;;;;;10.10;4.37;;;;;;;;;;5032126;28;20017;-61
2024/01/08 06:14:24;;;;;;;6.97;3.27;;;;;;;;;;5032324;28;20064;-62
2024/01/08 06:16:49;;;;;;;10.97;4.37;;;;;;;;;;5030965;28;20053;-61
2024/01/08 06:19:15;;;;;;;11.10;4.50;;;;;;;;;;5031648;28;20453;-61
2024/01/08 06:21:40;;;;;;;9.57;3.90;;;;;;;;;;5031742;28;20025;-61
2024/01/08 06:24:05;;;;;;;9.50;4.57;;;;;;;;;;5031832;28;20101;-63
2024/01/08 06:26:31;;;;;;;8.77;4.07;;;;;;;;;;5032037;28;20098;-62
2024/01/08 06:28:56;;;;;;;9.13;4.60;;;;;;;;;;5031159;28;20029;-62
2024/01/08 06:31:22;;;;;;;12.40;5.00;;;;;;;;;;5031763;28;20052;-61
2024/01/08 06:33:47;;;;;;;6.50;3.20;;;;;;;;;;5030772;28;20025;-62
2024/01/08 06:36:12;;;;;;;7.70;3.53;;;;;;;;;;5029313;28;20017;-62
2024/01/08 06:38:37;;;;;;;10.13;4.17;;;;;;;;;;5031478;28;20389;-62
2024/01/08 06:41:03;;;;;;;9.73;5.13;;;;;;;;;;5031489;28;20029;-61
2024/01/08 06:43:28;;;;;;;10.33;4.70;;;;;;;;;;5031852;28;20025;-63
2024/01/08 06:45:53;;;;;;;8.40;4.27;;;;;;;;;;5031253;28;20033;-62
2024/01/08 06:48:18;;;;;;;6.33;2.83;;;;;;;;;;5031452;28;20096;-62
2024/01/08 06:50:44;;;;;;;9.63;3.90;;;;;;;;;;5030340;28;20362;-62
2024/01/08 06:53:09;;;;;;;8.73;3.60;;;;;;;;;;5031249;28;20116;-63
2024/01/08 06:55:34;;;;;;;9.37;4.80;;;;;;;;;;5029064;28;20448;-62
2024/01/08 06:58:00;;;;;;;8.63;4.17;;;;;;;;;;5031824;28;20021;-62
2024/01/08 07:00:27;;;;;;;6.37;3.50;;;;;;;;;;5031215;28;20109;-62
2024/01/08 07:02:52;;;;;;;9.07;4.33;;;;;;;;;;5031695;28;20496;-62
2024/01/08 07:05:18;;;;;;;10.13;4.50;;;;;;;;;;5031298;28;20013;-62
2024/01/08 07:07:43;;;;;;;6.23;2.73;;;;;;;;;;5031500;28;20052;-62
2024/01/08 07:10:09;;;;;;;7.57;3.70;;;;;;;;;;5031143;28;20067;-62
2024/01/08 07:12:34;;;;;;;13.77;4.73;;;;;;;;;;5029772;28;20091;-62
2024/01/08 07:14:59;;;;;;;7.47;3.80;;;;;;;;;;5029617;28;20105;-62
2024/01/08 07:17:25;;;;;;;8.80;4.30;;;;;;;;;;5031026;28;20462;-61
2024/01/08 07:19:50;;;;;;;8.77;3.60;;;;;;;;;;5030458;28;20041;-62
2024/01/08 07:22:15;;;;;;;10.00;4.90;;;;;;;;;;5027824;28;20029;-62
2024/01/08 07:24:40;;;;;;;8.07;4.07;;;;;;;;;;5030716;28;20048;-62
2024/01/08 07:27:06;;;;;;;10.77;3.97;;;;;;;;;;5030535;28;20104;-62
2024/01/08 07:29:31;;;;;;;8.43;4.10;;;;;;;;;;5029271;28;20347;-62
2024/01/08 07:31:57;;;;;;;9.03;3.63;;;;;;;;;;5030393;28;20029;-63
2024/01/08 07:34:22;;;;;;;9.80;4.60;;;;;;;;;;5030852;28;20029;-62
2024/01/08 07:36:48;;;;;;;12.83;4.10;;;;;;;;;;5030790;28;20048;-62
2024/01/08 07:39:15;;;;;;;8.20;3.93;;;;;;;;;;5029571;28;20112;-62
2024/01/08 07:41:41;;;;;;;9.60;3.70;;;;;;;;;;5027866;28;20367;-62
2024/01/08 07:44:06;;;;;;;9.93;4.27;;;;;;;;;;5030058;28;20084;-63
2024/01/08 07:46:32;;;;;;;4.87;2.47;;;;;;;;;;5030350;28;20092;-63
2024/01/08 07:48:58;;;;;;;8.17;4.57;;;;;;;;;;5030177;28;20021;-62
2024/01/08 07:51:23;;;;;;;7.90;3.43;;;;;;;;;;5028727;28;20477;-62
2024/01/08 07:53:50;;;;;;;8.67;3.83;;;;;;;;;;5030106;28;20056;-62
2024/01/08 07:56:15;;;;;;;8.77;3.53;;;;;;;;;;5030263;28;20096;-62
2024/01/08 07:58:40;;;;;;;9.33;4.43;;;;;;;;;;5030356;28;20486;-62
2024/01/08 08:01:07;;;;;;;10.23;4.20;;;;;;;;;;5028473;28;20021;-62
2024/01/08 08:03:33;;;;;;;5.43;3.03;;;;;;;;;;5026220;28;20026;-62
2024/01/08 08:05:58;;;;;;;6.83;3.40;;;;;;;;;;5030074;28;20013;-62
2024/01/08 08:08:23;;;;;;;9.30;3.00;;;;;;;;;;5029936;28;20418;-62
2024/01/08 08:10:48;;;;;;;7.57;3.40;;;;;;;;;;5028602;28;20026;-62
2024/01/08 08:13:14;;;;;;;4.80;2.47;;;;;;;;;;5030030;28;20043;-62
2024/01/08 08:15:39;;;;;;;4.30;2.13;;;;;;;;;;5029755;28;20041;-62
2024/01/08 08:18:04;;;;;;;3.97;2.00;;;;;;;;;;5029843;28;20483;-62
2024/01/08 08:20:29;;;;;;;6.13;2.60;;;;;;;;;;5029428;28;20055;-62
2024/01/08 08:22:55;;;;;;;4.83;2.20;;;;;;;;;;5029860;28;20017;-62
2024/01/08 08:25:20;;;;;;;11.07;2.93;;;;;;;;;;5029635;28;20044;-63
2024/01/08 08:27:45;;;;;;;4.30;1.97;;;;;;;;;;5029084;28;20033;-63
2024/01/08 08:30:12;;;;;;;4.53;2.03;;;;;;;;;;5029187;28;20448;-63
2024/01/08 08:32:39;;;;;;;4.17;1.90;;;;;;;;;;5029320;28;20033;-63
2024/01/08 08:35:05;;;;;;;5.80;2.70;;;;;;;;;;5027670;28;20025;-63
2024/01/08 08:37:30;;;;;;;6.47;3.00;;;;;;;;;;5028845;28;20052;-63
2024/01/08 08:39:55;;;;;;;4.90;2.73;;;;;;;;;;5027338;28;20033;-63
2024/01/08 08:42:21;;;;;;;7.47;2.87;;;;;;;;;;5029225;28;20037;-63
2024/01/08 08:44:46;;;;;;;5.93;3.03;;;;;;;;;;5028600;28;20033;-63
2024/01/08 08:47:12;;;;;;;5.77;2.80;;;;;;;;;;5028943;28;20397;-63
2024/01/08 08:49:37;;;;;;;5.53;2.67;;;;;;;;;;5029085;28;20030;-63
2024/01/08 08:52:03;;;;;;;4.63;2.20;;;;;;;;;;5028967;28;20386;-63
2024/01/08 08:54:28;;;;;;;6.30;2.93;;;;;;;;;;5028403;28;20026;-63
2024/01/08 08:56:53;;;;;;;7.20;3.50;;;;;;;;;;5029497;28;20037;-63
2024/01/08 08:59:19;;;;;;;5.73;2.70;;;;;;;;;;5029547;28;20030;-63
2024/01/08 09:01:47;;;;;;;6.27;2.87;;;;;;;;;;5028824;28;20620;-63
2024/01/08 09:04:12;;;;;;;5.00;2.27;;;;;;;;;;5028326;28;20530;-63
2024/01/08 09:06:38;;;;;;;5.63;2.60;;;;;;;;;;5029079;28;20152;-64
2024/01/08 09:09:03;;;;;;;10.47;2.37;;;;;;;;;;5028957;28;20013;-63
2024/01/08 09:11:29;;;;;;;6.50;3.07;;;;;;;;;;5028620;28;20371;-63
2024/01/08 09:13:54;;;;;;;6.07;2.53;;;;;;;;;;5028521;28;20032;-63
2024/01/08 09:16:20;;;;;;;6.07;2.30;;;;;;;;;;5028918;28;20029;-62
2024/01/08 09:18:45;;;;;;;6.10;2.40;;;;;;;;;;5028289;28;20029;-63
2024/01/08 09:21:11;;;;;;;5.07;2.27;;;;;;;;;;5027950;28;20036;-63
2024/01/08 09:23:37;;;;;;;5.13;2.60;;;;;;;;;;5029309;28;20017;-63
2024/01/08 09:26:04;;;;;;;6.37;2.90;;;;;;;;;;5029107;28;20026;-63
2024/01/08 09:28:29;;;;;;;6.27;2.43;;;;;;;;;;5028347;28;20021;-63
2024/01/08 09:30:54;;;;;;;5.53;2.67;;;;;;;;;;5027685;28;20173;-63
2024/01/08 09:33:20;;;;;;;4.13;2.20;;;;;;;;;;5028854;28;20024;-63
2024/01/08 09:35:45;;;;;;;4.83;2.47;;;;;;;;;;5028833;28;20026;-62
2024/01/08 09:38:10;;;;;;;5.23;2.20;;;;;;;;;;5029176;28;20021;-63
2024/01/08 09:40:36;;;;;;;6.90;3.27;;;;;;;;;;5029260;28;20549;-62
2024/01/08 09:43:04;;;;;;;5.53;2.60;;;;;;;;;;5028858;28;20024;-62
2024/01/08 09:45:29;;;;;;;7.37;3.00;;;;;;;;;;5030140;28;20484;-62
2024/01/08 09:47:55;;;;;;;5.43;2.40;;;;;;;;;;5030541;28;20029;-61
2024/01/08 09:50:21;;;;;;;6.60;2.70;;;;;;;;;;5032823;28;20532;-62
2024/01/08 09:52:46;;;;;;;7.27;3.77;;;;;;;;;;5032814;28;20025;-62
2024/01/08 09:55:12;;;;;;;5.70;2.60;;;;;;;;;;5032392;28;20018;-62
2024/01/08 09:57:37;;;;;;;7.00;3.27;;;;;;;;;;5032913;28;20064;-61
2024/01/08 10:00:04;;;;;;;7.13;2.70;;;;;;;;;;5032742;28;20383;-62
2024/01/08 10:02:29;;;;;;;5.37;2.53;;;;;;;;;;5031232;28;20464;-61
2024/01/08 10:04:55;;;;;;;8.63;3.20;;;;;;;;;;5032540;28;20097;-61
2024/01/08 10:07:20;;;;;;;5.33;2.30;;;;;;;;;;5031834;28;20025;-62
2024/01/08 10:09:45;;;;;;;5.87;3.23;;;;;;;;;;5031590;28;21227;-61
2024/01/08 10:12:11;;;;;;;5.30;2.70;;;;;;;;;;5032714;28;20032;-62
2024/01/08 10:14:36;;;;;;;5.60;2.40;;;;;;;;;;5032259;28;20021;-62
2024/01/08 10:17:02;;;;;;;3.40;2.00;;;;;;;;;;5032473;28;20508;-62
2024/01/08 10:19:27;;;;;;;4.57;2.20;;;;;;;;;;5031692;28;20045;-62
2024/01/08 10:22:09;;;;;;;4.70;2.70;;;;;;;;;;5032323;28;20390;-62
2024/01/08 10:24:35;;;;;;;7.55;2.47;;;;;;;;;;5030634;28;20453;-61
2024/01/08 10:27:01;;;;;;;5.73;2.60;;;;;;;;;;5032178;28;20017;-62
2024/01/08 10:29:26;;;;;;;5.97;2.80;;;;;;;;;;5030047;28;20014;-61
2024/01/08 10:31:52;;;;;;;5.30;2.07;;;;;;;;;;5031945;28;20029;-62
2024/01/08 10:34:18;;;;;;;7.13;2.50;;;;;;;;;;5031593;28;20029;-62
2024/01/08 10:36:44;;;;;;;6.83;2.80;;;;;;;;;;5030806;28;20021;-61
2024/01/08 10:39:09;;;;;;;5.73;2.40;;;;;;;;;;5031931;28;20021;-62
2024/01/08 10:41:36;;;;;;;6.60;3.10;;;;;;;;;;5032029;28;20378;-62
2024/01/08 10:44:01;;;;;;;6.37;3.00;;;;;;;;;;5031796;28;20025;-62
2024/01/08 10:46:29;;;;;;;5.73;2.87;;;;;;;;;;5031974;28;20024;-61
2024/01/08 10:48:55;;;;;;;6.83;3.30;;;;;;;;;;5031665;28;20021;-61
2024/01/08 10:51:21;;;;;;;4.70;2.33;;;;;;;;;;5031060;28;20108;-62
2024/01/08 10:53:47;;;;;;;5.87;2.60;;;;;;;;;;5031817;28;20104;-61
2024/01/08 10:56:16;;;;;;;7.77;3.27;;;;;;;;;;5031085;28;20033;-61
2024/01/08 10:59:08;;;;;;;6.43;2.47;;;;;;;;;;5030716;28;20087;-62
2024/01/08 11:01:34;;;;;;;6.97;2.72;;;;;;;;;;5028060;28;20363;-61
2024/01/08 11:04:00;;;;;;;4.27;2.00;;;;;;;;;;5031442;28;20028;-61
2024/01/08 11:06:28;;;;;;;4.73;2.27;;;;;;;;;;5029942;28;20041;-61
2024/01/08 11:08:55;;;;;;;4.40;2.23;;;;;;;;;;5028280;28;20424;-61
2024/01/08 11:11:21;;;;;;;4.60;2.07;;;;;;;;;;5030786;28;20096;-62
2024/01/08 11:13:46;;;;;;;3.50;2.10;;;;;;;;;;5029094;28;20025;-62
2024/01/08 11:16:13;;;;;;;6.33;3.00;;;;;;;;;;5028770;28;20033;-61
2024/01/08 11:18:38;;;;;;;6.63;3.07;;;;;;;;;;5030748;28;20060;-62
2024/01/08 11:21:06;;;;;;;5.90;2.40;;;;;;;;;;5030929;28;20493;-62
2024/01/08 11:23:39;;;;;;;6.83;3.07;;;;;;;;;;5030735;28;20037;-63
2024/01/08 11:26:18;;;;;;;6.53;3.40;;;;;;;;;;5030344;28;20017;-61
2024/01/08 11:28:59;;;;;;;5.10;2.77;;;;;;;;;;5029008;28;20359;-62
2024/01/08 11:31:24;;;;;;;3.97;1.90;;;;;;;;;;5031201;28;20025;-62
2024/01/08 11:34:19;;;;;;;6.87;2.90;;;;;;;;;;5030668;28;20485;-61
2024/01/08 11:36:48;;;;;;;4.40;2.20;;;;;;;;;;5030546;28;20025;-62
2024/01/08 11:39:17;;;;;;;4.50;2.50;;;;;;;;;;5029622;28;20482;-62
2024/01/08 11:41:43;;;;;;;6.43;3.20;;;;;;;;;;5030068;28;20025;-61
2024/01/08 11:44:09;;;;;;;8.80;2.90;;;;;;;;;;5027869;28;20064;-62
2024/01/08 11:46:34;;;;;;;6.40;3.13;;;;;;;;;;5029848;28;20079;-62
2024/01/08 11:49:00;;;;;;;6.93;3.20;;;;;;;;;;5030578;28;20018;-62
2024/01/08 11:51:26;;;;;;;8.67;2.63;;;;;;;;;;5030622;28;20021;-62
2024/01/08 11:53:51;;;;;;;5.77;2.73;;;;;;;;;;5030364;28;20024;-62
2024/01/08 11:56:17;;;;;;;6.60;2.70;;;;;;;;;;5030157;28;20382;-64
2024/01/08 11:58:46;;;;;;;5.87;2.90;;;;;;;;;;5029793;28;20026;-63
2024/01/08 12:01:18;;;;;;;6.13;2.87;;;;;;;;;;5028068;28;20027;-63
2024/01/08 12:03:44;;;;;;;4.00;2.10;;;;;;;;;;5027698;28;20031;-63
2024/01/08 12:06:09;;;;;;;4.43;1.90;;;;;;;;;;5030023;28;20424;-63
2024/01/08 12:08:34;;;;;;;5.77;2.27;;;;;;;;;;5029841;28;20068;-63
2024/01/08 12:11:00;;;;;;;7.40;3.20;;;;;;;;;;5029953;28;20100;-65
2024/01/08 12:13:26;;;;;;;3.30;1.60;;;;;;;;;;5027976;28;20347;-63
2024/01/08 12:15:51;;;;;;;6.00;2.47;;;;;;;;;;5029892;28;20026;-63
2024/01/08 12:18:17;;;;;;;3.60;1.90;;;;;;;;;;5029514;28;20025;-63
2024/01/08 12:20:43;;;;;;;4.20;2.10;;;;;;;;;;5029125;28;20132;-63
2024/01/08 12:23:09;;;;;;;3.90;2.00;;;;;;;;;;5028192;28;20021;-63
2024/01/08 12:25:34;;;;;;;4.30;1.87;;;;;;;;;;5029699;28;20018;-63
2024/01/08 12:28:00;;;;;;;5.73;3.00;;;;;;;;;;5029973;28;20461;-63
2024/01/08 12:30:28;;;;;;;5.87;2.43;;;;;;;;;;5029742;28;20092;-63
2024/01/08 12:32:53;;;;;;;6.60;2.80;;;;;;;;;;5029468;28;20656;-63
2024/01/08 12:35:19;;;;;;;7.40;2.20;;;;;;;;;;5029374;28;20025;-63
2024/01/08 12:37:45;;;;;;;7.27;2.90;;;;;;;;;;5029351;28;20029;-66
2024/01/08 12:40:10;;;;;;;5.87;2.53;;;;;;;;;;5028979;28;20021;-64
2024/01/08 12:42:36;;;;;;;5.33;2.10;;;;;;;;;;5028077;28;20030;-64
2024/01/08 12:45:04;;;;;;;5.23;2.30;;;;;;;;;;5028305;28;20101;-63
2024/01/08 12:47:30;;;;;;;5.43;2.07;;;;;;;;;;5028638;28;20013;-64
2024/01/08 12:49:56;;;;;;;3.60;1.70;;;;;;;;;;5028426;28;20040;-62
2024/01/08 12:52:22;;;;;;;5.27;1.93;;;;;;;;;;5028824;28;20026;-64
2024/01/08 12:54:48;;;;;;;4.30;2.37;;;;;;;;;;5029101;28;20071;-62
2024/01/08 12:57:15;;;;;;;6.17;3.00;;;;;;;;;;5029051;28;20104;-62
2024/01/08 12:59:50;;;;;;;7.00;3.20;;;;;;;;;;5028086;28;20025;-62
2024/01/08 13:02:15;;;;;;;4.80;2.40;;;;;;;;;;5027685;28;20148;-62
2024/01/08 13:04:42;;;;;;;5.63;2.50;;;;;;;;;;5029289;28;20160;-62
2024/01/08 13:07:08;;;;;;;2.70;1.33;;;;;;;;;;5029119;28;20440;-62
2024/01/08 13:09:33;;;;;;;5.33;2.63;;;;;;;;;;5028609;28;20037;-61
2024/01/08 13:11:58;;;;;;;6.13;2.33;;;;;;;;;;5028867;28;20032;-62
2024/01/08 13:14:24;;;;;;;5.47;2.80;;;;;;;;;;5029210;28;20029;-61
2024/01/08 13:16:50;;;;;;;6.10;2.23;;;;;;;;;;5029293;28;20040;-62
2024/01/08 13:19:15;;;;;;;5.33;1.80;;;;;;;;;;5028678;28;20064;-62
2024/01/08 13:21:42;;;;;;;8.70;3.10;;;;;;;;;;5031504;28;20362;-62
2024/01/08 13:24:11;;;;;;;5.43;2.57;;;;;;;;;;5032955;28;20026;-62
2024/01/08 13:26:39;;;;;;;6.03;2.50;;;;;;;;;;5032314;28;20014;-62
2024/01/08 13:29:05;;;;;;;6.47;2.87;;;;;;;;;;5033018;28;20496;-61
2024/01/08 13:31:31;;;;;;;4.17;1.93;;;;;;;;;;5032023;28;20300;-62
2024/01/08 13:33:56;;;;;;;5.00;1.93;;;;;;;;;;5031896;28;20037;-62
2024/01/08 13:36:21;;;;;;;5.03;2.37;;;;;;;;;;5031922;28;20492;-62
2024/01/08 13:38:47;;;;;;;6.80;2.20;;;;;;;;;;5032345;28;20373;-62
2024/01/08 13:41:12;;;;;;;7.17;2.57;;;;;;;;;;5031749;28;20033;-62
2024/01/08 13:43:37;;;;;;;7.23;3.10;;;;;;;;;;5031505;28;20023;-62
2024/01/08 13:46:03;;;;;;;6.07;2.50;;;;;;;;;;5032365;28;20363;-62
2024/01/08 13:48:28;;;;;;;6.63;2.77;;;;;;;;;;5032358;28;20053;-62
2024/01/08 13:50:56;;;;;;;6.63;2.97;;;;;;;;;;5032142;28;20084;-62
2024/01/08 13:53:22;;;;;;;5.70;2.33;;;;;;;;;;5032280;28;20072;-62
2024/01/08 13:55:47;;;;;;;4.40;2.03;;;;;;;;;;5032265;28;20021;-62
2024/01/08 13:58:12;;;;;;;4.10;2.10;;;;;;;;;;5032512;28;20370;-62
2024/01/08 14:00:38;;;;;;;7.57;1.97;;;;;;;;;;5031463;28;20029;-62
2024/01/08 14:03:04;;;;;;;3.43;1.63;;;;;;;;;;5032464;28;20018;-62
2024/01/08 14:05:29;;;;;;;6.90;1.80;;;;;;;;;;5030273;28;20032;-62
2024/01/08 14:07:54;;;;;;;3.63;1.63;;;;;;;;;;5032498;28;20025;-62
2024/01/08 14:10:20;;;;;;;4.73;1.97;;;;;;;;;;5032063;28;20017;-62
2024/01/08 14:12:45;;;;;;;5.57;2.73;;;;;;;;;;5032181;28;20041;-62
2024/01/08 14:15:11;;;;;;;3.57;1.80;;;;;;;;;;5032059;28;20021;-62
2024/01/08 14:17:38;;;;;;;4.57;2.30;;;;;;;;;;5031710;28;20064;-61
2024/01/08 14:20:05;;;;;;;4.47;2.07;;;;;;;;;;5032121;28;20421;-61
2024/01/08 14:22:30;;;;;;;5.00;1.90;;;;;;;;;;5032046;28;20068;-61
2024/01/08 14:24:55;;;;;;;4.07;1.93;;;;;;;;;;5031786;28;20057;-61
2024/01/08 14:27:21;;;;;;;5.50;2.17;;;;;;;;;;5031888;28;20436;-61
2024/01/08 14:29:49;;;;;;;4.53;2.17;;;;;;;;;;5032075;28;20120;-61